Sorensen's Resport, Hope Valley, California Weather observations

Data are for 15 minute period ending at time listed.
 Day   Time   Solar   Ave.   Ave.  Ave.  Vector  Max.   Baro.   Total    
  of    of     Rad.   Air    Rel.  Wind   Wind   Wind  Press.  Precip.   
Year   Day            Temp.  Hum.  Speed  Dir.   Gust                    
2019   (PST)  Kw/m2    F      %     mph   deg.    mph    mb.     in.     
-------------------------------------------------------------------------
  15    0:00   100.00   16.5    95    1.7   248     3.4   99999.0   12.54 
  15    0:15   100.00   17.0    95    3.2   253     6.4   99999.0   12.55 
  15    0:30   100.00   17.0    95    1.9   255     3.0   99999.0   12.55 
  15    0:45   100.00   17.8    95    1.7   270     4.3   99999.0   12.55 
  15    1:00   100.00   18.8    96    2.3   257     5.0   99999.0   12.55 
  15    1:15   100.00   19.2    95    1.6   279     3.8   99999.0   12.56 
  15    1:30   100.00   19.7    95    2.3   269    11.0   99999.0   12.55 
  15    1:45   100.00   20.3    95    2.2   233     4.5   99999.0   12.55 
  15    2:00   100.00   20.3    95    1.8   233     3.7   99999.0   12.56 
  15    2:15   100.00   20.3    95    2.3   273     5.6   99999.0   12.55 
  15    2:30   100.00   20.6    95    2.9   228     7.2   99999.0   12.55 
  15    2:45   100.00   20.9    95    2.8   192     5.7   99999.0   12.55 
  15    3:00   100.00   21.3    95    2.7   265     6.3   99999.0   12.55 
  15    3:15   100.00   20.6    95    2.3   238     6.1   99999.0   12.55 
  15    3:30   100.00   19.6    95    2.2   284     4.7   99999.0   12.54 
  15    3:45   100.00   18.5    96    2.4   248     4.3   99999.0   12.54 
  15    4:00   100.00   18.0    96    1.9   184     4.5   99999.0   12.54 
  15    4:15   100.00   17.1    96    2.0   217     4.2   99999.0   12.54 
  15    4:30   100.00   16.6    96    1.9   273     4.6   99999.0   12.54 
  15    4:45   100.00   14.9    96    1.7   260     4.8   99999.0   12.54 
  15    5:00   100.00   14.4    96    1.9   253     3.7   99999.0   12.54 
  15    5:15   100.00   14.2    95    2.2   260     4.1   99999.0   12.54 
  15    5:30   100.00   14.1    95    1.4   258     3.7   99999.0   12.54 
  15    5:45   100.00   13.8    95    1.7   271     3.2   99999.0   12.53 
  15    6:00   100.00   13.9    95    1.2   274     3.1   99999.0   12.54 
  15    6:15   100.00   13.6    95    1.8   266     3.7   99999.0   12.54 
  15    6:30   100.00   12.8    94    1.6   261     2.9   99999.0   12.53 
  15    6:45   100.00   12.3    94    1.6   274     3.6   99999.0   12.53 
  15    7:00   100.00   13.0    94    1.4   255     4.5   99999.0   12.53 
  15    7:15   100.00   13.6    94    1.1   285     2.3   99999.0   12.54 
  15    7:30   100.00   14.4    94    2.0   281     3.9   99999.0   12.54 
  15    7:45   100.00   14.9    94    1.7   286     3.9   99999.0   12.54 
  15    8:00   100.00   15.9    94    1.5   294     2.6   99999.0   12.55 
  15    8:15   100.00   16.7    95    2.0   286     5.3   99999.0   12.56 
  15    8:30   100.00   17.6    95    0.5   307     2.6   99999.0   12.57 
  15    8:45   100.00   18.7    95    1.4   255     3.1   99999.0   12.58 
  15    9:00   100.00   19.4    95    2.6   272     4.7   99999.0   12.58 
  15    9:15   100.00   19.8    95    2.4   284     4.3   99999.0   12.58 
  15    9:30   100.00   21.0    95    1.8   294     4.5   99999.0   12.58 
  15    9:45   100.00   21.9    94    1.8   299     3.2   99999.0   12.58 
  15   10:00   100.00   23.0    94    1.5   282     3.0   99999.0   12.59 
  15   10:15   100.00   24.4    93    0.9   250     2.6   99999.0   12.61 
  15   10:30   100.00   25.0    93    2.3    93     5.6   99999.0   12.63 
  15   10:45   100.00   24.8    96    4.8   106     6.9   99999.0   12.61 
  15   11:00   100.00   25.1    96    4.9    96     6.6   99999.0   12.61 
  15   11:15   100.00   25.2    96    5.1   104     7.5   99999.0   12.62 
  15   11:30   100.00   25.4    96    5.7   106     8.2   99999.0   12.62 
  15   11:45   100.00   25.5    96    5.1   101     8.1   99999.0   12.62 
  15   12:00   100.00   25.6    96    4.9    98     7.6   99999.0   12.63 
  15   12:15   100.00   25.8    96    4.6    91     7.1   99999.0   12.63 
  15   12:30   100.00   25.5    96    5.4    92     7.9   99999.0   12.64 
  15   12:45   100.00   25.3    97    6.0    95     8.8   99999.0   12.64 
  15   13:00   100.00   25.0    97    5.5    96     8.2   99999.0   12.65 
  15   13:15   100.00   25.0    98    5.5    98     7.5   99999.0   12.66 
  15   13:30   100.00   24.9    98    5.1    95     7.0   99999.0   12.67 
  15   13:45   100.00   24.9    98    5.0    94     7.2   99999.0   12.68 
  15   14:00   100.00   24.7    98    5.7    96     8.3   99999.0   12.70 
  15   14:15   100.00   24.6    98    5.5    92     8.1   99999.0   12.71 
  15   14:30   100.00   24.6    98    5.5    94     8.2   99999.0   12.73 
  15   14:45   100.00   24.5    98    4.9    89     8.1   99999.0   12.75 
  15   15:00   100.00   24.5    98    4.3    91     7.0   99999.0   12.76 
  15   15:15   100.00   24.4    98    4.8    89     7.6   99999.0   12.79 
  15   15:30   100.00   24.4    98    3.7    74     7.2   99999.0   12.81 
  15   15:45   100.00   24.3    98    3.3    84     5.4   99999.0   12.82 
  15   16:00   100.00   24.3    98    3.8    87     6.6   99999.0   12.84 
  15   16:15   100.00   24.3    99    3.8    88     7.5   99999.0   12.85 
  15   16:30   100.00   24.3    99    3.0    77     5.4   99999.0   12.87 
  15   16:45   100.00   24.3    99    5.0    98     8.8   99999.0   12.88 
  15   17:00   100.00   24.4    99    5.6   105     8.4   99999.0   12.88 
  15   17:15   100.00   24.2    99    5.8   105     8.8   99999.0   12.90 
  15   17:30   100.00   23.9    98    5.8   104     8.6   99999.0   12.91 
  15   17:45   100.00   23.8    98    4.0    79     7.1   99999.0   12.93 
  15   18:00   100.00   23.9    99    2.8    67     5.3   99999.0   12.94 
  15   18:15   100.00   23.9    99    3.7    81     6.7   99999.0   12.96 
  15   18:30   100.00   24.0    99    4.2    92     7.5   99999.0   12.97 
  15   18:45   100.00   24.0    99    3.7    74     7.4   99999.0   12.98 
  15   19:00   100.00   24.0    99    3.0    64     5.3   99999.0   12.99 
  15   19:15   100.00   24.1    99    1.3    54     3.2   99999.0   13.01 
  15   19:30   100.00   24.3    99    2.0    86     3.3   99999.0   13.03 
  15   19:45   100.00   24.4    99    1.7    67     3.2   99999.0   13.07 
  15   20:00   100.00   24.6    99    1.5    73     2.6   99999.0   13.09 
  15   20:15   100.00   25.0    99    2.2    93     5.4   99999.0   13.11 
  15   20:30   100.00   25.3    99    2.5   229     7.5   99999.0   13.13 
  15   20:45   100.00   25.7    99    1.8   224     4.2   99999.0   13.15 
  15   21:00   100.00   25.9    99    1.8   110     4.6   99999.0   13.16 
  15   21:15   100.00   27.7   100    4.4   328    15.1   99999.0   13.18 
  15   21:30   100.00   30.8   100    9.4   323    20.2   99999.0   13.18 
  15   21:45   100.00   31.4   100   10.6   322    27.8   99999.0   13.18 
  15   22:00   100.00   32.0    93   11.3   324    24.8   99999.0   13.18 
  15   22:15   100.00   32.0    92    9.0   333    23.7   99999.0   13.18 
  15   22:30   100.00   32.1    92    9.3   332    19.1   99999.0   13.18 
  15   22:45   100.00   32.6    89    9.3   330    25.0   99999.0   13.18 
  15   23:00   100.00   32.2    92    9.2   324    24.0   99999.0   13.19 
  15   23:15   100.00   32.1    93    8.4   327    18.2   99999.0   13.19 
  15   23:30   100.00   32.1    94    9.4   343    21.5   99999.0   13.20 
  15   23:45   100.00   32.1    93    8.9   320    19.5   99999.0   13.20 

Return to Sorensen's Resort graphs page.


Western Regional Climate Center,wrcc@dri.edu